| time (UTC) | temp C | wind direction | speed KPH | gust KPH | rain 1hr cm | rain 24hr cm | rain mn cm | humidity % | barometer mb |
| 20260510022531 | 21 | 100 | 6.4 | 8.0 | 0.00 | 0.20 | 0.20 | 94 | 1011.7 |
| 20260510022026 | 22 | 97 | 4.8 | 6.4 | 0.00 | 0.20 | 0.20 | 94 | 1011.4 |
| 20260510021523 | 22 | 111 | 4.8 | 4.8 | 0.00 | 0.20 | 0.20 | 94 | 1011.4 |
| 20260510021020 | 22 | 63 | 3.2 | 4.8 | 0.00 | 0.20 | 0.20 | 93 | 1011.4 |
| 20260510020515 | 22 | 187 | 0.0 | 1.6 | 0.00 | 0.20 | 0.20 | 93 | 1011.3 |
| 20260510020011 | 22 | 297 | 0.0 | 1.6 | 0.00 | 0.20 | 0.20 | 93 | 1011.2 |
| 20260510015507 | 22 | 240 | 3.2 | 4.8 | 0.00 | 0.20 | 0.20 | 93 | 1011.3 |
| 20260510015003 | 22 | 342 | 0.0 | 4.8 | 0.00 | 0.20 | 0.20 | 92 | 1011.1 |
| 20260510014500 | 22 | 173 | 3.2 | 3.2 | 0.00 | 0.20 | 0.20 | 92 | 1011.1 |
| 20260510013956 | 22 | 164 | 4.8 | 8.0 | 0.00 | 0.20 | 0.20 | 92 | 1011.0 |
| 20260510013451 | 22 | 297 | 0.0 | 0.0 | 0.00 | 0.20 | 0.20 | 91 | 1010.7 |
| 20260510012947 | 22 | 246 | 0.0 | 1.6 | 0.00 | 0.20 | 0.20 | 91 | 1010.6 |
| 20260510012442 | 22 | 238 | 0.0 | 1.6 | 0.00 | 0.20 | 0.20 | 90 | 1010.4 |
| 20260510011937 | 22 | 238 | 1.6 | 3.2 | 0.00 | 0.20 | 0.20 | 90 | 1010.3 |
| 20260510011432 | 22 | 276 | 1.6 | 3.2 | 0.00 | 0.20 | 0.20 | 89 | 1010.3 |
| 20260510010928 | 23 | 322 | 0.0 | 4.8 | 0.00 | 0.20 | 0.20 | 89 | 1010.5 |
| 20260510010426 | 23 | 324 | 3.2 | 4.8 | 0.00 | 0.20 | 0.20 | 88 | 1010.3 |
| 20260510005922 | 24 | 299 | 4.8 | 6.4 | 0.00 | 0.20 | 0.20 | 87 | 1010.4 |
| 20260510005418 | 25 | 253 | 1.6 | 3.2 | 0.00 | 0.20 | 0.20 | 84 | 1010.2 |
| 20260510004916 | 25 | 261 | 3.2 | 4.8 | 0.00 | 0.20 | 0.20 | 83 | 1010.2 |
| 20260510004413 | 25 | 224 | 1.6 | 3.2 | 0.00 | 0.20 | 0.20 | 82 | 1010.3 |
| 20260510003911 | 25 | 348 | 3.2 | 8.0 | 0.00 | 0.20 | 0.20 | 81 | 1010.3 |
| 20260510003408 | 27 | 278 | 4.8 | 4.8 | 0.00 | 0.20 | 0.20 | 73 | 1010.3 |
| 20260510002907 | 28 | 269 | 0.0 | 3.2 | 0.00 | 0.20 | 0.20 | 73 | 1010.4 |
| 20260510002404 | 27 | 240 | 0.0 | 3.2 | 0.00 | 0.20 | 0.20 | 74 | 1010.3 |
| 20260510001900 | 27 | 251 | 3.2 | 4.8 | 0.00 | 0.20 | 0.20 | 74 | 1010.4 |
| 20260510001358 | 25 | 212 | 0.0 | 3.2 | 0.00 | 0.20 | 0.20 | 77 | 1010.4 |
| 20260510000855 | 25 | 140 | 1.6 | 8.0 | 0.00 | 0.20 | 0.20 | 79 | 1010.3 |
| 20260510000351 | 25 | 179 | 3.2 | 6.4 | 0.00 | 0.20 | 0.20 | 80 | 1010.2 |
| 20260509235848 | 23 | 169 | 3.2 | 6.4 | 0.00 | 0.20 | 0.20 | 83 | 1010.0 |
| 20260509235345 | 23 | 174 | 1.6 | 4.8 | 0.00 | 0.20 | 0.20 | 84 | 1009.8 |
| 20260509234841 | 23 | 255 | 0.0 | 3.2 | 0.00 | 0.20 | 0.20 | 85 | 1010.1 |
| 20260509234338 | 23 | 97 | 9.7 | 14.5 | 0.00 | 0.20 | 0.20 | 84 | 1010.1 |
| 20260509233836 | 23 | 101 | 6.4 | 8.0 | 0.00 | 0.20 | 0.20 | 85 | 1010.0 |
| 20260509233333 | 22 | 163 | 3.2 | 4.8 | 0.00 | 0.20 | 0.20 | 87 | 1010.3 |
| 20260509232829 | 22 | 150 | 1.6 | 6.4 | 0.00 | 0.20 | 0.20 | 90 | 1010.8 |
| 20260509232327 | 21 | 83 | 3.2 | 4.8 | 0.00 | 0.20 | 0.20 | 90 | 1010.6 |
| 20260509231823 | 21 | 262 | 4.8 | 6.4 | 0.00 | 0.20 | 0.20 | 90 | 1010.3 |
| 20260509231320 | 21 | 157 | 3.2 | 11.3 | 0.00 | 0.20 | 0.20 | 89 | 1010.3 |
| 20260509230818 | 21 | 100 | 11.3 | 12.9 | 0.00 | 0.20 | 0.20 | 89 | 1010.4 |
| 20260509230314 | 21 | 248 | 6.4 | 8.0 | 0.00 | 0.20 | 0.20 | 88 | 1010.0 |
| 20260509225809 | 21 | 205 | 6.4 | 9.7 | 0.05 | 0.20 | 0.20 | 87 | 1010.1 |
| 20260509225307 | 21 | 241 | 3.2 | 4.8 | 0.23 | 0.20 | 0.20 | 86 | 1010.0 |
| 20260509224802 | 21 | 338 | 0.0 | 3.2 | 0.30 | 0.20 | 0.20 | 85 | 1010.0 |
| 20260509224259 | 21 | 330 | 0.0 | 3.2 | 0.05 | 0.15 | 0.15 | 86 | 1010.0 |
| 20260509223755 | 21 | 296 | 4.8 | 11.3 | 0.00 | 0.15 | 0.15 | 85 | 1010.3 |
| 20260509223253 | 21 | 312 | 9.7 | 19.3 | 0.05 | 0.15 | 0.15 | 83 | 1010.4 |
| 20260509222749 | 21 | 340 | 8.0 | 14.5 | 0.05 | 0.15 | 0.15 | 84 | 1010.2 |
| 20260509222245 | 21 | 317 | 8.0 | 16.1 | 0.05 | 0.15 | 0.15 | 85 | 1010.2 |
| 20260509221740 | 21 | 307 | 11.3 | 11.3 | 0.36 | 0.15 | 0.15 | 86 | 1010.0 |
| 20260509221237 | 21 | 305 | 9.7 | 16.1 | 0.48 | 0.13 | 0.13 | 83 | 1010.0 |
| 20260509220733 | 22 | 340 | 16.1 | 33.8 | 0.13 | 0.08 | 0.08 | 80 | 1010.1 |
| 20260509220230 | 23 | 334 | 6.4 | 11.3 | 0.00 | 0.05 | 0.05 | 83 | 1010.1 |
| 20260509215725 | 23 | 338 | 8.0 | 14.5 | 0.00 | 0.05 | 0.05 | 84 | 1009.5 |
| 20260509215222 | 24 | 325 | 14.5 | 17.7 | 0.05 | 0.05 | 0.05 | 88 | 1009.3 |
| 20260509214719 | 25 | 283 | 6.4 | 17.7 | 0.05 | 0.05 | 0.05 | 87 | 1009.3 |
| 20260509214216 | 25 | 336 | 14.5 | 20.9 | 0.05 | 0.05 | 0.05 | 83 | 1009.8 |
| 20260509213713 | 26 | 350 | 8.0 | 12.9 | 0.00 | 0.03 | 0.03 | 82 | 1010.1 |
| 20260509213208 | 27 | 341 | 4.8 | 6.4 | 0.00 | 0.03 | 0.03 | 84 | 1009.8 |
| 20260509212707 | 27 | 233 | 4.8 | 8.0 | 0.00 | 0.03 | 0.03 | 84 | 1009.8 |
| 20260509212203 | 27 | 217 | 4.8 | 6.4 | 0.00 | 0.03 | 0.03 | 83 | 1009.8 |
| 20260509211659 | 27 | 215 | 4.8 | 9.7 | 0.05 | 0.03 | 0.03 | 82 | 1010.0 |
| 20260509211156 | 27 | 241 | 11.3 | 16.1 | 0.13 | 0.03 | 0.03 | 80 | 1009.6 |
| 20260509210652 | 28 | 230 | 8.0 | 11.3 | 0.05 | 0.03 | 0.03 | 78 | 1009.7 |
| 20260509210150 | 30 | 219 | 6.4 | 11.3 | 0.00 | 0.00 | 0.00 | 74 | 1009.7 |
| 20260509205644 | 30 | 202 | 4.8 | 6.4 | 0.00 | 0.00 | 0.00 | 72 | 1009.9 |
| 20260509205138 | 30 | 228 | 3.2 | 4.8 | 0.00 | 0.00 | 0.00 | 71 | 1010.1 |
| 20260509204635 | 30 | 181 | 1.6 | 4.8 | 0.00 | 0.00 | 0.00 | 68 | 1009.7 |
| 20260509204131 | 30 | 217 | 4.8 | 8.0 | 0.00 | 0.00 | 0.00 | 69 | 1010.0 |
| 20260509203627 | 30 | 237 | 6.4 | 9.7 | 0.00 | 0.00 | 0.00 | 69 | 1010.2 |
| 20260509203126 | 31 | 263 | 9.7 | 12.9 | 0.00 | 0.00 | 0.00 | 67 | 1010.2 |
| 20260509202625 | 32 | 245 | 3.2 | 9.7 | 0.00 | 0.00 | 0.00 | 67 | 1010.3 |
| 20260509202121 | 32 | 257 | 4.8 | 8.0 | 0.00 | 0.00 | 0.00 | 65 | 1010.4 |
| 20260509201616 | 31 | 178 | 6.4 | 9.7 | 0.00 | 0.00 | 0.00 | 67 | 1010.5 |
| 20260509201114 | 32 | 221 | 8.0 | 9.7 | 0.00 | 0.00 | 0.00 | 64 | 1010.4 |
| 20260509200609 | 32 | 312 | 0.0 | 8.0 | 0.00 | 0.00 | 0.00 | 66 | 1010.3 |
| 20260509200105 | 31 | 315 | 4.8 | 11.3 | 0.00 | 0.00 | 0.00 | 67 | 1010.5 |
| 20260509195600 | 31 | 293 | 4.8 | 9.7 | 0.00 | 0.00 | 0.00 | 69 | 1010.3 |
| 20260509195050 | 32 | 358 | 3.2 | 4.8 | 0.00 | 0.00 | 0.00 | 66 | 1010.5 |
| 20260509194549 | 31 | 227 | 4.8 | 11.3 | 0.00 | 0.00 | 0.00 | 66 | 1010.5 |
| 20260509194048 | 31 | 165 | 3.2 | 9.7 | 0.00 | 0.00 | 0.00 | 68 | 1010.5 |
| 20260509193542 | 31 | 130 | 0.0 | 9.7 | 0.00 | 0.00 | 0.00 | 69 | 1010.6 |
| 20260509193039 | 31 | 266 | 6.4 | 8.0 | 0.00 | 0.00 | 0.00 | 69 | 1010.7 |
| 20260509192536 | 31 | 258 | 6.4 | 11.3 | 0.00 | 0.00 | 0.00 | 67 | 1010.6 |
| 20260509192031 | 30 | 179 | 3.2 | 9.7 | 0.00 | 0.00 | 0.00 | 71 | 1010.8 |
| 20260509191525 | 30 | 210 | 8.0 | 14.5 | 0.00 | 0.00 | 0.00 | 72 | 1011.0 |
| 20260509191021 | 30 | 252 | 8.0 | 11.3 | 0.00 | 0.00 | 0.00 | 70 | 1011.0 |
| 20260509190518 | 30 | 242 | 4.8 | 8.0 | 0.00 | 0.00 | 0.00 | 72 | 1011.1 |
| 20260509190017 | 30 | 259 | 4.8 | 12.9 | 0.00 | 0.00 | 0.00 | 72 | 1011.1 |
| 20260509185513 | 30 | 302 | 8.0 | 11.3 | 0.00 | 0.00 | 0.00 | 73 | 1011.2 |
| 20260509185009 | 30 | 8 | 1.6 | 4.8 | 0.00 | 0.00 | 0.00 | 73 | 1011.4 |
| 20260509184508 | 30 | 233 | 8.0 | 12.9 | 0.00 | 0.00 | 0.00 | 74 | 1011.3 |
| 20260509184004 | 30 | 172 | 8.0 | 11.3 | 0.00 | 0.00 | 0.00 | 71 | 1011.3 |
| 20260509183459 | 29 | 278 | 4.8 | 12.9 | 0.00 | 0.00 | 0.00 | 74 | 1011.6 |
| 20260509182955 | 29 | 266 | 4.8 | 8.0 | 0.00 | 0.00 | 0.00 | 76 | 1011.5 |
| 20260509182452 | 29 | 307 | 6.4 | 12.9 | 0.00 | 0.00 | 0.00 | 75 | 1011.7 |
| 20260509181949 | 29 | 242 | 12.9 | 14.5 | 0.00 | 0.00 | 0.00 | 74 | 1011.8 |
| 20260509181447 | 29 | 169 | 6.4 | 11.3 | 0.00 | 0.00 | 0.00 | 78 | 1011.7 |
| 20260509180945 | 28 | 221 | 9.7 | 16.1 | 0.00 | 0.00 | 0.00 | 78 | 1011.7 |
| 20260509180440 | 28 | 169 | 12.9 | 16.1 | 0.00 | 0.00 | 0.00 | 78 | 1012.0 |
| 20260509175937 | 28 | 195 | 11.3 | 16.1 | 0.00 | 0.00 | 0.00 | 79 | 1012.0 |
| 20260509175433 | 28 | 179 | 9.7 | 14.5 | 0.00 | 0.00 | 0.00 | 78 | 1011.9 |
| 20260509174930 | 28 | 180 | 4.8 | 14.5 | 0.00 | 0.00 | 0.00 | 79 | 1012.0 |
| 20260509174426 | 28 | 203 | 12.9 | 14.5 | 0.00 | 0.00 | 0.00 | 79 | 1012.1 |
| 20260509173922 | 28 | 211 | 4.8 | 8.0 | 0.00 | 0.00 | 0.00 | 81 | 1012.1 |
| 20260509173421 | 28 | 203 | 9.7 | 12.9 | 0.00 | 0.00 | 0.00 | 82 | 1011.9 |
| 20260509172918 | 27 | 197 | 17.7 | 20.9 | 0.00 | 0.00 | 0.00 | 83 | 1012.2 |
| 20260509172415 | 28 | 235 | 12.9 | 17.7 | 0.00 | 0.00 | 0.00 | 81 | 1012.1 |
| 20260509171911 | 27 | 203 | 12.9 | 17.7 | 0.00 | 0.00 | 0.00 | 82 | 1012.1 |
| 20260509171407 | 28 | 224 | 8.0 | 17.7 | 0.00 | 0.00 | 0.00 | 81 | 1012.3 |
| 20260509170903 | 28 | 222 | 9.7 | 14.5 | 0.00 | 0.00 | 0.00 | 83 | 1012.3 |
| 20260509170359 | 28 | 207 | 6.4 | 14.5 | 0.00 | 0.00 | 0.00 | 81 | 1012.3 |
| 20260509165855 | 27 | 214 | 6.4 | 9.7 | 0.00 | 0.00 | 0.00 | 81 | 1012.4 |
| 20260509165349 | 27 | 201 | 6.4 | 12.9 | 0.00 | 0.00 | 0.00 | 82 | 1012.5 |
| 20260509164845 | 27 | 193 | 8.0 | 11.3 | 0.00 | 0.00 | 0.00 | 82 | 1012.4 |
| 20260509164341 | 27 | 161 | 4.8 | 6.4 | 0.00 | 0.00 | 0.00 | 81 | 1012.5 |
| 20260509163837 | 27 | 184 | 3.2 | 9.7 | 0.00 | 0.00 | 0.00 | 82 | 1012.4 |
| 20260509163334 | 27 | 197 | 4.8 | 6.4 | 0.00 | 0.00 | 0.00 | 82 | 1012.5 |
| 20260509162833 | 27 | 169 | 3.2 | 16.1 | 0.00 | 0.00 | 0.00 | 81 | 1012.3 |
| 20260509162326 | 27 | 219 | 6.4 | 16.1 | 0.00 | 0.00 | 0.00 | 81 | 1012.1 |
| 20260509161823 | 27 | 214 | 4.8 | 8.0 | 0.00 | 0.00 | 0.00 | 82 | 1012.0 |
| 20260509161319 | 27 | 169 | 8.0 | 9.7 | 0.00 | 0.00 | 0.00 | 82 | 1012.2 |
| 20260509160815 | 27 | 238 | 3.2 | 9.7 | 0.00 | 0.00 | 0.00 | 84 | 1012.2 |
| 20260509160311 | 27 | 169 | 6.4 | 11.3 | 0.00 | 0.00 | 0.00 | 83 | 1012.1 |
| 20260509155806 | 27 | 220 | 1.6 | 4.8 | 0.00 | 0.00 | 0.00 | 85 | 1012.5 |
| 20260509155306 | 27 | 93 | 3.2 | 4.8 | 0.00 | 0.00 | 0.00 | 87 | 1012.5 |
| 20260509154759 | 26 | 214 | 4.8 | 6.4 | 0.00 | 0.00 | 0.00 | 88 | 1012.5 |
| 20260509154256 | 26 | 269 | 4.8 | 8.0 | 0.00 | 0.00 | 0.00 | 88 | 1012.4 |
| 20260509153753 | 26 | 109 | 1.6 | 3.2 | 0.00 | 0.00 | 0.00 | 89 | 1012.5 |
| 20260509153249 | 26 | 260 | 3.2 | 4.8 | 0.00 | 0.00 | 0.00 | 90 | 1012.6 |
| 20260509152746 | 26 | 283 | 4.8 | 8.0 | 0.00 | 0.00 | 0.00 | 91 | 1012.5 |
| 20260509152242 | 25 | 297 | 4.8 | 9.7 | 0.00 | 0.00 | 0.00 | 91 | 1012.5 |
| 20260509151739 | 26 | 299 | 9.7 | 9.7 | 0.00 | 0.00 | 0.00 | 91 | 1012.6 |
| 20260509151236 | 26 | 300 | 8.0 | 11.3 | 0.00 | 0.00 | 0.00 | 90 | 1012.4 |
| 20260509150734 | 26 | 305 | 0.0 | 6.4 | 0.00 | 0.00 | 0.00 | 92 | 1012.4 |
| 20260509150232 | 25 | 247 | 3.2 | 8.0 | 0.00 | 0.00 | 0.00 | 92 | 1012.3 |
| 20260509145728 | 25 | 256 | 4.8 | 8.0 | 0.00 | 0.00 | 0.00 | 93 | 1012.4 |
| 20260509145223 | 25 | 324 | 4.8 | 12.9 | 0.00 | 0.00 | 0.00 | 94 | 1012.1 |
| 20260509144720 | 25 | 265 | 1.6 | 4.8 | 0.00 | 0.00 | 0.00 | 95 | 1012.0 |
| 20260509144217 | 25 | 258 | 3.2 | 4.8 | 0.00 | 0.00 | 0.00 | 96 | 1011.9 |
| 20260509143714 | 25 | 239 | 3.2 | 6.4 | 0.00 | 0.00 | 0.00 | 97 | 1011.9 |
| 20260509143211 | 25 | 205 | 6.4 | 8.0 | 0.00 | 0.00 | 0.00 | 97 | 1011.6 |
| 20260509142706 | 25 | 247 | 1.6 | 4.8 | 0.00 | 0.00 | 0.00 | 99 | 1011.9 |
| 20260509142203 | 24 | 231 | 6.4 | 8.0 | 0.00 | 0.00 | 0.00 | 99 | 1011.6 |
| 20260509141659 | 24 | 248 | 4.8 | 4.8 | 0.00 | 0.00 | 0.00 | 99 | 1011.8 |
| 20260509141156 | 24 | 319 | 1.6 | 3.2 | 0.00 | 0.00 | 0.00 | 99 | 1011.8 |
| 20260509140653 | 23 | 216 | 4.8 | 8.0 | 0.00 | 0.00 | 0.00 | 99 | 1011.8 |
| 20260509140151 | 23 | 207 | 4.8 | 9.7 | 0.00 | 0.00 | 0.00 | 99 | 1011.7 |
| 20260509135648 | 23 | 201 | 1.6 | 8.0 | 0.00 | 0.00 | 0.00 | 99 | 1011.6 |
| 20260509135146 | 23 | 177 | 3.2 | 11.3 | 0.00 | 0.00 | 0.00 | 99 | 1011.8 |
| 20260509134642 | 23 | 194 | 4.8 | 12.9 | 0.00 | 0.00 | 0.00 | 99 | 1011.9 |
| 20260509134140 | 23 | 209 | 12.9 | 12.9 | 0.00 | 0.00 | 0.00 | 99 | 1011.9 |
| 20260509133637 | 23 | 175 | 6.4 | 14.5 | 0.00 | 0.00 | 0.00 | 99 | 1011.9 |
| 20260509133134 | 23 | 172 | 4.8 | 11.3 | 0.00 | 0.00 | 0.00 | 99 | 1012.1 |
| 20260509132632 | 23 | 205 | 9.7 | 11.3 | 0.00 | 0.00 | 0.00 | 99 | 1012.3 |
| 20260509132130 | 23 | 207 | 6.4 | 11.3 | 0.00 | 0.00 | 0.00 | 99 | 1012.3 |
| 20260509131626 | 23 | 189 | 6.4 | 12.9 | 0.00 | 0.00 | 0.00 | 99 | 1012.2 |
| 20260509131123 | 23 | 185 | 9.7 | 12.9 | 0.00 | 0.00 | 0.00 | 99 | 1012.1 |
| 20260509130619 | 23 | 180 | 4.8 | 8.0 | 0.00 | 0.00 | 0.00 | 99 | 1012.4 |
| 20260509130115 | 22 | 187 | 3.2 | 4.8 | 0.00 | 0.00 | 0.00 | 99 | 1012.1 |
| 20260509125612 | 22 | 179 | 8.0 | 16.1 | 0.00 | 0.00 | 0.00 | 99 | 1011.9 |
| 20260509125109 | 22 | 167 | 4.8 | 16.1 | 0.00 | 0.00 | 0.00 | 99 | 1011.6 |
| 20260509124605 | 22 | 169 | 11.3 | 16.1 | 0.00 | 0.00 | 0.00 | 99 | 1012.1 |
| 20260509124102 | 22 | 156 | 4.8 | 11.3 | 0.00 | 0.00 | 0.00 | 99 | 1012.2 |
| 20260509123600 | 22 | 186 | 4.8 | 8.0 | 0.00 | 0.00 | 0.00 | 99 | 1012.0 |
| 20260509123057 | 22 | 197 | 6.4 | 9.7 | 0.00 | 0.00 | 0.00 | 99 | 1012.3 |
| 20260509122553 | 22 | 130 | 0.0 | 4.8 | 0.00 | 0.00 | 0.00 | 99 | 1012.2 |
| 20260509122050 | 22 | 197 | 0.0 | 3.2 | 0.00 | 0.00 | 0.00 | 99 | 1012.5 |
| 20260509121546 | 22 | 175 | 0.0 | 3.2 | 0.00 | 0.00 | 0.00 | 99 | 1012.4 |
| 20260509121048 | 22 | 193 | 3.2 | 3.2 | 0.00 | 0.00 | 0.00 | 99 | 1012.5 |
| 20260509120542 | 22 | 182 | 1.6 | 3.2 | 0.00 | 0.00 | 0.00 | 99 | 1012.4 |
| 20260509120040 | 22 | 218 | 0.0 | 3.2 | 0.00 | 0.00 | 0.00 | 99 | 1012.2 |
| 20260509115537 | 22 | 77 | 0.0 | 0.0 | 0.00 | 0.00 | 0.00 | 99 | 1012.3 |
| 20260509115035 | 22 | 89 | 0.0 | 0.0 | 0.00 | 0.00 | 0.00 | 99 | 1011.9 |
| 20260509114532 | 22 | 178 | 3.2 | 4.8 | 0.00 | 0.00 | 0.00 | 99 | 1011.9 |
| 20260509114031 | 22 | 319 | 0.0 | 1.6 | 0.00 | 0.00 | 0.00 | 99 | 1012.0 |
| 20260509113529 | 22 | 113 | 0.0 | 0.0 | 0.00 | 0.00 | 0.00 | 99 | 1012.2 |
| 20260509113027 | 22 | 255 | 0.0 | 1.6 | 0.00 | 0.00 | 0.00 | 99 | 1012.1 |
| 20260509112523 | 22 | 246 | 0.0 | 1.6 | 0.00 | 0.00 | 0.00 | 99 | 1012.2 |
| 20260509112020 | 22 | 205 | 0.0 | 1.6 | 0.00 | 0.00 | 0.00 | 99 | 1012.2 |
| 20260509111517 | 22 | 307 | 0.0 | 3.2 | 0.00 | 0.00 | 0.00 | 99 | 1012.2 |
| 20260509111014 | 22 | 356 | 3.2 | 6.4 | 0.00 | 0.00 | 0.00 | 99 | 1011.9 |
| 20260509110510 | 22 | 324 | 4.8 | 4.8 | 0.00 | 0.00 | 0.00 | 99 | 1011.9 |
| 20260509110008 | 22 | 151 | 3.2 | 4.8 | 0.00 | 0.00 | 0.00 | 99 | 1011.9 |
| 20260509105506 | 22 | 297 | 0.0 | 3.2 | 0.00 | 0.00 | 0.00 | 99 | 1012.1 |
| 20260509105003 | 22 | 316 | 0.0 | 4.8 | 0.00 | 0.00 | 0.00 | 99 | 1012.4 |
| 20260509104500 | 22 | 242 | 0.0 | 3.2 | 0.00 | 0.00 | 0.00 | 99 | 1012.5 |
| 20260509103957 | 22 | 39 | 0.0 | 3.2 | 0.00 | 0.00 | 0.00 | 99 | 1012.1 |
| 20260509103455 | 22 | 15 | 0.0 | 6.4 | 0.00 | 0.00 | 0.00 | 99 | 1012.2 |
| 20260509102953 | 22 | 328 | 3.2 | 4.8 | 0.00 | 0.00 | 0.00 | 99 | 1012.1 |
| 20260509102450 | 22 | 315 | 0.0 | 3.2 | 0.00 | 0.00 | 0.00 | 99 | 1011.7 |
| 20260509101946 | 22 | 191 | 4.8 | 4.8 | 0.00 | 0.00 | 0.00 | 99 | 1011.2 |
| 20260509101442 | 22 | 150 | 0.0 | 4.8 | 0.00 | 0.00 | 0.00 | 99 | 1011.1 |
| 20260509100940 | 22 | 213 | 4.8 | 6.4 | 0.00 | 0.00 | 0.00 | 99 | 1011.1 |
| 20260509100437 | 22 | 207 | 4.8 | 8.0 | 0.00 | 0.00 | 0.00 | 99 | 1011.1 |
| 20260509095933 | 22 | 188 | 4.8 | 9.7 | 0.00 | 0.00 | 0.00 | 99 | 1011.0 |
| 20260509095431 | 22 | 198 | 6.4 | 11.3 | 0.00 | 0.00 | 0.00 | 99 | 1010.9 |
| 20260509094928 | 22 | 186 | 4.8 | 11.3 | 0.00 | 0.00 | 0.00 | 99 | 1011.1 |
| 20260509094424 | 22 | 170 | 4.8 | 6.4 | 0.00 | 0.00 | 0.00 | 99 | 1011.3 |
| 20260509093922 | 22 | 230 | 1.6 | 3.2 | 0.00 | 0.00 | 0.00 | 99 | 1011.4 |
| 20260509093419 | 22 | 218 | 3.2 | 3.2 | 0.00 | 0.00 | 0.00 | 99 | 1011.4 |
| 20260509092917 | 22 | 217 | 0.0 | 3.2 | 0.00 | 0.00 | 0.00 | 99 | 1011.6 |
| 20260509092415 | 22 | 75 | 0.0 | 4.8 | 0.00 | 0.00 | 0.00 | 99 | 1011.6 |
| 20260509091913 | 22 | 342 | 4.8 | 6.4 | 0.00 | 0.00 | 0.00 | 99 | 1011.5 |
| 20260509091409 | 22 | 129 | 0.0 | 3.2 | 0.05 | 0.00 | 0.00 | 99 | 1011.5 |
| 20260509090907 | 22 | 97 | 0.0 | 3.2 | 0.05 | 0.00 | 0.00 | 99 | 1011.4 |
| 20260509090404 | 22 | 89 | 0.0 | 3.2 | 0.00 | 0.00 | 0.00 | 99 | 1011.4 |
| 20260509085902 | 22 | 63 | 0.0 | 1.6 | 0.00 | 0.00 | 0.00 | 99 | 1011.3 |
| 20260509085359 | 22 | 75 | 0.0 | 3.2 | 0.00 | 0.00 | 0.00 | 99 | 1011.4 |
| 20260509084854 | 22 | 104 | 0.0 | 1.6 | 0.00 | 0.00 | 0.00 | 99 | 1011.6 |
| 20260509084352 | 22 | 117 | 0.0 | 3.2 | 0.00 | 0.00 | 0.00 | 99 | 1011.7 |
| 20260509083849 | 22 | 106 | 0.0 | 3.2 | 0.00 | 0.00 | 0.00 | 99 | 1011.8 |
| 20260509083346 | 22 | 309 | 0.0 | 0.0 | 0.00 | 0.00 | 0.00 | 99 | 1012.0 |
| 20260509082843 | 22 | 322 | 0.0 | 1.6 | 0.00 | 0.00 | 0.00 | 99 | 1011.7 |
| 20260509082339 | 22 | 304 | 0.0 | 1.6 | 0.00 | 0.00 | 0.00 | 99 | 1011.7 |
| 20260509081837 | 22 | 326 | 0.0 | 3.2 | 0.00 | 0.00 | 0.00 | 99 | 1011.8 |
| 20260509081334 | 22 | 229 | 0.0 | 0.0 | 0.00 | 0.00 | 0.00 | 99 | 1011.7 |
| 20260509080832 | 22 | 172 | 0.0 | 1.6 | 0.00 | 0.00 | 0.00 | 99 | 1011.8 |
| 20260509080329 | 22 | 187 | 0.0 | 1.6 | 0.00 | 0.00 | 0.00 | 99 | 1012.0 |
| 20260509075827 | 22 | 218 | 1.6 | 4.8 | 0.00 | 0.00 | 0.00 | 99 | 1012.0 |
| 20260509075324 | 22 | 184 | 0.0 | 4.8 | 0.00 | 0.00 | 0.00 | 99 | 1011.6 |
| 20260509074821 | 22 | 164 | 1.6 | 4.8 | 0.00 | 0.00 | 0.00 | 99 | 1011.7 |
| 20260509074319 | 22 | 160 | 4.8 | 4.8 | 0.00 | 0.00 | 0.00 | 99 | 1011.4 |
| 20260509073815 | 22 | 164 | 4.8 | 11.3 | 0.00 | 0.00 | 0.00 | 99 | 1011.3 |
| 20260509073312 | 22 | 152 | 4.8 | 9.7 | 0.00 | 0.00 | 0.00 | 99 | 1011.4 |
| 20260509072808 | 22 | 165 | 8.0 | 9.7 | 0.00 | 0.00 | 0.00 | 99 | 1011.5 |
| 20260509072306 | 22 | 168 | 4.8 | 9.7 | 0.00 | 0.00 | 0.00 | 99 | 1011.5 |
| 20260509071801 | 22 | 170 | 3.2 | 4.8 | 0.00 | 0.00 | 0.00 | 98 | 1011.7 |
| 20260509071259 | 22 | 217 | 1.6 | 4.8 | 0.00 | 0.00 | 0.00 | 98 | 1011.7 |
| 20260509070755 | 22 | 104 | 0.0 | 4.8 | 0.00 | 0.00 | 0.00 | 98 | 1011.6 |
| 20260509070252 | 22 | 170 | 3.2 | 6.4 | 0.00 | 0.00 | 0.00 | 98 | 1011.6 |
| 20260509065748 | 22 | 110 | 0.0 | 8.0 | 0.00 | 0.00 | 0.00 | 98 | 1011.6 |
| 20260509065245 | 22 | 167 | 3.2 | 8.0 | 0.00 | 0.00 | 0.00 | 98 | 1011.7 |
| 20260509064741 | 22 | 189 | 4.8 | 8.0 | 0.00 | 0.00 | 0.00 | 98 | 1011.5 |
| 20260509064239 | 22 | 130 | 6.4 | 9.7 | 0.00 | 0.00 | 0.00 | 98 | 1011.5 |
| 20260509063736 | 22 | 185 | 8.0 | 14.5 | 0.00 | 0.00 | 0.00 | 98 | 1011.4 |
| 20260509063232 | 22 | 166 | 6.4 | 14.5 | 0.00 | 0.00 | 0.00 | 98 | 1011.1 |
| 20260509062730 | 22 | 158 | 4.8 | 12.9 | 0.00 | 0.00 | 0.00 | 98 | 1011.0 |
| 20260509062227 | 22 | 160 | 8.0 | 12.9 | 0.00 | 0.00 | 0.00 | 98 | 1011.1 |
| 20260509061723 | 22 | 159 | 6.4 | 11.3 | 0.00 | 0.00 | 0.00 | 97 | 1011.5 |
| 20260509061221 | 22 | 140 | 4.8 | 11.3 | 0.00 | 0.00 | 0.00 | 97 | 1011.5 |
| 20260509060719 | 22 | 141 | 3.2 | 11.3 | 0.00 | 0.00 | 0.00 | 97 | 1011.8 |
| 20260509060214 | 22 | 143 | 6.4 | 11.3 | 0.00 | 0.00 | 0.00 | 97 | 1011.9 |
| 20260509055710 | 22 | 133 | 3.2 | 14.5 | 0.00 | 0.00 | 0.00 | 97 | 1011.9 |
| 20260509055206 | 22 | 167 | 12.9 | 12.9 | 0.00 | 0.00 | 0.00 | 97 | 1011.9 |
| 20260509054703 | 22 | 155 | 4.8 | 12.9 | 0.00 | 0.00 | 0.00 | 97 | 1012.0 |
| 20260509054201 | 22 | 147 | 4.8 | 12.9 | 0.00 | 0.00 | 0.00 | 97 | 1011.9 |
| 20260509053659 | 22 | 145 | 4.8 | 9.7 | 0.00 | 0.00 | 0.00 | 97 | 1011.9 |
| 20260509053155 | 22 | 163 | 3.2 | 8.0 | 0.00 | 0.00 | 0.00 | 96 | 1011.8 |
| 20260509052653 | 22 | 127 | 4.8 | 9.7 | 0.00 | 0.00 | 0.00 | 96 | 1011.9 |
| 20260509052151 | 22 | 164 | 6.4 | 16.1 | 0.00 | 0.00 | 0.00 | 96 | 1012.1 |
| 20260509051648 | 22 | 168 | 6.4 | 9.7 | 0.00 | 0.00 | 0.00 | 96 | 1012.0 |
| 20260509051145 | 22 | 118 | 11.3 | 12.9 | 0.00 | 0.00 | 0.00 | 96 | 1012.2 |
| 20260509050642 | 22 | 145 | 4.8 | 14.5 | 0.00 | 0.00 | 0.00 | 96 | 1011.9 |
| 20260509050139 | 22 | 147 | 4.8 | 11.3 | 0.00 | 0.00 | 0.00 | 96 | 1012.1 |
| 20260509045637 | 22 | 147 | 3.2 | 12.9 | 0.00 | 0.00 | 0.00 | 96 | 1011.9 |
| 20260509045133 | 22 | 104 | 6.4 | 11.3 | 0.00 | 0.00 | 0.00 | 96 | 1011.9 |
| 20260509044630 | 22 | 99 | 9.7 | 9.7 | 0.00 | 0.00 | 0.00 | 96 | 1012.0 |
| 20260509044128 | 22 | 125 | 6.4 | 16.1 | 0.00 | 0.00 | 0.00 | 96 | 1012.0 |
| 20260509043624 | 22 | 104 | 8.0 | 14.5 | 0.00 | 0.00 | 0.00 | 95 | 1011.9 |
| 20260509043120 | 22 | 129 | 6.4 | 11.3 | 0.00 | 0.00 | 0.00 | 95 | 1011.9 |
| 20260509042617 | 22 | 104 | 6.4 | 9.7 | 0.00 | 0.00 | 0.00 | 95 | 1012.0 |
| 20260509042112 | 22 | 130 | 4.8 | 16.1 | 0.00 | 0.00 | 0.00 | 95 | 1012.0 |
| 20260509041609 | 22 | 115 | 8.0 | 12.9 | 0.00 | 0.00 | 0.00 | 95 | 1012.0 |
| 20260509041107 | 22 | 133 | 6.4 | 11.3 | 0.00 | 0.00 | 0.00 | 95 | 1011.8 |
| 20260509040605 | 22 | 147 | 4.8 | 11.3 | 0.00 | 0.00 | 0.00 | 95 | 1011.9 |
| 20260509035558 | 22 | 132 | 3.2 | 9.7 | 0.00 | 0.00 | 0.00 | 95 | 1011.8 |
| 20260509035055 | 22 | 156 | 3.2 | 9.7 | 0.00 | 0.00 | 0.00 | 95 | 1011.8 |
| 20260509034553 | 22 | 98 | 0.0 | 8.0 | 0.00 | 0.00 | 0.00 | 95 | 1011.8 |
| 20260509034050 | 22 | 127 | 8.0 | 12.9 | 0.00 | 0.00 | 0.00 | 95 | 1011.6 |
| 20260509033547 | 22 | 120 | 3.2 | 4.8 | 0.00 | 0.00 | 0.00 | 95 | 1011.6 |
| 20260509033044 | 22 | 148 | 3.2 | 8.0 | 0.00 | 0.00 | 0.00 | 95 | 1011.5 |
| 20260509032541 | 22 | 116 | 3.2 | 8.0 | 0.00 | 0.00 | 0.00 | 95 | 1011.7 |
| 20260509032038 | 22 | 142 | 0.0 | 11.3 | 0.00 | 0.00 | 0.00 | 95 | 1011.5 |
| 20260509031536 | 23 | 123 | 6.4 | 12.9 | 0.00 | 0.00 | 0.00 | 94 | 1011.5 |
| 20260509031033 | 23 | 111 | 4.8 | 11.3 | 0.00 | 0.00 | 0.00 | 94 | 1011.3 |
| 20260509030531 | 23 | 96 | 6.4 | 11.3 | 0.00 | 0.00 | 0.00 | 94 | 1011.3 |
| 20260509030027 | 23 | 132 | 6.4 | 14.5 | 0.00 | 0.00 | 0.00 | 94 | 1011.4 |
| 20260509025523 | 23 | 153 | 4.8 | 14.5 | 0.00 | 0.00 | 0.00 | 94 | 1011.2 |
| 20260509025019 | 23 | 169 | 4.8 | 17.7 | 0.00 | 0.00 | 0.00 | 94 | 1011.4 |
| 20260509024516 | 23 | 158 | 1.6 | 8.0 | 0.00 | 0.00 | 0.00 | 94 | 1011.1 |
| 20260509024012 | 23 | 128 | 8.0 | 11.3 | 0.00 | 0.00 | 0.00 | 94 | 1011.2 |
| 20260509023510 | 23 | 152 | 4.8 | 8.0 | 0.00 | 0.00 | 0.00 | 94 | 1011.4 |
| 20260509023006 | 23 | 154 | 0.0 | 11.3 | 0.00 | 0.00 | 0.00 | 94 | 1011.2 |